Time;durP1;ratioP1;P1;durP2;ratioP2;P2;SDS_P1;SDS_P2;PMS_P1;PMS_P2;Temp;Humidity;BMP_temperature;BMP_pressure;BME280_temperature;BME280_humidity;BME280_pressure;Samples;Min_cycle;Max_cycle;Signal;HPM_P1;HPM_P2
2023/10/31 00:01:51;;;;;;;2.55;1.75;;;;;;;21.81;45.80;99399.53;5012857;28;20068;-68
2023/10/31 00:04:16;;;;;;;3.00;2.17;;;;;;;21.81;45.96;99396.88;5020114;28;20038;-68
2023/10/31 00:06:42;;;;;;;2.40;1.70;;;;;;;21.80;45.58;99400.56;4988010;28;20491;-67
2023/10/31 00:09:08;;;;;;;4.20;2.30;;;;;;;21.81;45.63;99394.22;5018125;28;20049;-67
2023/10/31 00:11:34;;;;;;;2.17;1.73;;;;;;;21.81;45.75;99398.72;5002661;28;20049;-67
2023/10/31 00:14:00;;;;;;;2.20;1.92;;;;;;;21.80;45.79;99392.59;4999426;28;20050;-67
2023/10/31 00:16:25;;;;;;;2.95;1.80;;;;;;;21.77;45.76;99386.97;5020167;28;20033;-68
2023/10/31 00:18:51;;;;;;;2.20;1.92;;;;;;;21.82;45.75;99395.03;4984173;28;20412;-67
2023/10/31 00:21:18;;;;;;;4.07;2.10;;;;;;;21.78;45.51;99394.69;5025521;28;20404;-67
2023/10/31 00:23:46;;;;;;;2.67;1.90;;;;;;;21.80;45.68;99394.44;4975698;28;20044;-67
2023/10/31 00:26:12;;;;;;;2.95;1.88;;;;;;;21.69;45.76;99374.81;5004807;28;20025;-67
2023/10/31 00:28:43;;;;;;;2.30;1.77;;;;;;;21.82;45.72;99398.47;5023411;28;20060;-67
2023/10/31 00:31:11;;;;;;;1.80;1.58;;;;;;;21.78;45.66;99388.56;4978724;28;20047;-67
2023/10/31 00:33:37;;;;;;;2.00;1.73;;;;;;;21.83;45.70;99399.28;4962672;28;20820;-68
2023/10/31 00:36:03;;;;;;;3.35;1.98;;;;;;;21.83;45.47;99405.41;4964213;28;20037;-67
2023/10/31 00:38:29;;;;;;;3.05;1.90;;;;;;;21.84;45.59;99411.50;5025708;28;20068;-67
2023/10/31 00:40:55;;;;;;;1.70;1.58;;;;;;;21.83;45.65;99399.28;5021840;28;20036;-68
2023/10/31 00:43:21;;;;;;;3.28;2.08;;;;;;;21.82;45.64;99408.28;4976418;28;20044;-67
2023/10/31 00:45:47;;;;;;;2.28;1.80;;;;;;;21.82;45.87;99408.28;5023111;28;20041;-68
2023/10/31 00:48:12;;;;;;;3.00;1.85;;;;;;;21.82;45.85;99401.13;4989886;28;20040;-67
2023/10/31 00:50:38;;;;;;;1.80;1.50;;;;;;;21.79;46.00;99403.44;5020873;28;20068;-68
2023/10/31 00:53:03;;;;;;;2.65;1.80;;;;;;;21.78;45.56;99405.28;4979809;28;20033;-67
2023/10/31 00:55:29;;;;;;;3.33;1.55;;;;;;;21.78;45.95;99412.41;5033872;28;20041;-68
2023/10/31 00:57:54;;;;;;;3.00;1.67;;;;;;;21.77;45.56;99416.91;4976277;28;20041;-68
2023/10/31 01:00:20;;;;;;;1.85;1.60;;;;;;;21.76;45.91;99417.13;5023786;28;20045;-68
2023/10/31 01:02:45;;;;;;;1.67;1.50;;;;;;;21.75;45.70;99423.47;4986917;28;20037;-68
2023/10/31 01:05:11;;;;;;;2.50;1.60;;;;;;;21.73;45.67;99421.06;5021780;28;20033;-68
2023/10/31 01:07:37;;;;;;;2.08;1.42;;;;;;;21.71;45.62;99420.44;4980020;28;20041;-67
2023/10/31 01:10:03;;;;;;;2.08;1.63;;;;;;;21.73;45.79;99422.91;5017901;28;20143;-67
2023/10/31 01:12:30;;;;;;;2.80;1.70;;;;;;;21.70;45.70;99416.19;4976622;28;20048;-67
2023/10/31 01:14:56;;;;;;;2.92;1.67;;;;;;;21.72;46.11;99419.41;5016205;28;20048;-67
2023/10/31 01:17:22;;;;;;;1.42;1.30;;;;;;;21.68;45.79;99416.41;4977867;28;20042;-67
2023/10/31 01:19:47;;;;;;;1.83;1.38;;;;;;;21.69;46.08;99411.91;5041648;28;20529;-67
2023/10/31 01:22:13;;;;;;;2.35;1.70;;;;;;;21.69;45.97;99418.03;4981921;28;20037;-68
2023/10/31 01:24:38;;;;;;;1.67;1.48;;;;;;;21.66;45.81;99415.84;5024402;28;20033;-68
2023/10/31 01:27:04;;;;;;;2.70;1.48;;;;;;;21.67;45.90;99420.09;4972065;28;20099;-67
2023/10/31 01:29:30;;;;;;;2.40;1.58;;;;;;;21.67;45.97;99427.22;5022249;28;20033;-67
2023/10/31 01:31:56;;;;;;;2.05;1.63;;;;;;;21.55;46.22;99410.50;4976401;28;20044;-67
2023/10/31 01:34:21;;;;;;;2.13;1.50;;;;;;;21.65;45.83;99435.41;5019879;28;20450;-68
2023/10/31 01:36:47;;;;;;;1.90;1.55;;;;;;;21.67;46.10;99432.53;4976115;28;20064;-67
2023/10/31 01:39:13;;;;;;;3.03;1.95;;;;;;;21.61;46.13;99430.78;5007769;28;20040;-67
2023/10/31 01:41:42;;;;;;;2.33;1.58;;;;;;;21.63;45.96;99429.53;5022705;28;20116;-68
2023/10/31 01:44:07;;;;;;;2.40;1.50;;;;;;;21.62;46.06;99429.75;4975854;28;20923;-67
2023/10/31 01:46:33;;;;;;;2.38;1.52;;;;;;;21.63;45.68;99429.53;5027759;28;20033;-68
2023/10/31 01:48:58;;;;;;;2.00;1.30;;;;;;;21.61;46.08;99426.31;4986887;28;21933;-67
2023/10/31 01:51:24;;;;;;;2.13;1.60;;;;;;;21.57;45.83;99419.03;5035924;28;20041;-68
2023/10/31 01:53:49;;;;;;;1.58;1.25;;;;;;;21.60;45.76;99432.63;4985952;28;21858;-67
2023/10/31 01:56:15;;;;;;;1.85;1.55;;;;;;;21.61;46.08;99428.16;5018187;28;20041;-68
2023/10/31 01:58:43;;;;;;;2.03;1.27;;;;;;;21.57;45.86;99427.78;4987139;28;20048;-68
2023/10/31 02:01:09;;;;;;;2.00;1.40;;;;;;;21.60;46.06;99423.88;5013124;28;20032;-68
2023/10/31 02:03:34;;;;;;;3.28;1.70;;;;;;;21.56;45.83;99426.19;5008307;28;20497;-67
2023/10/31 02:06:00;;;;;;;2.38;1.60;;;;;;;21.58;45.95;99426.75;5005958;28;20042;-68
2023/10/31 02:08:26;;;;;;;1.92;1.40;;;;;;;21.57;46.05;99419.03;5031772;28;20029;-68
2023/10/31 02:10:52;;;;;;;1.77;1.23;;;;;;;21.57;45.93;99422.50;4985655;28;20052;-68
2023/10/31 02:13:18;;;;;;;2.67;1.35;;;;;;;21.60;45.94;99429.19;5023768;28;20177;-68
2023/10/31 02:15:45;;;;;;;2.10;1.35;;;;;;;21.59;45.77;99424.91;4987262;28;20080;-67
2023/10/31 02:18:12;;;;;;;1.30;1.20;;;;;;;21.59;45.74;99422.28;5020613;28;20084;-67
2023/10/31 02:20:37;;;;;;;2.90;1.63;;;;;;;21.56;45.70;99418.22;4984882;28;20966;-68
2023/10/31 02:23:04;;;;;;;2.38;1.38;;;;;;;21.56;45.87;99415.59;5028467;28;20037;-68
2023/10/31 02:25:30;;;;;;;2.10;1.40;;;;;;;21.57;45.80;99419.84;4989951;28;20040;-68
2023/10/31 02:27:57;;;;;;;1.98;1.30;;;;;;;21.56;45.77;99415.59;5020070;28;20044;-68
2023/10/31 02:30:23;;;;;;;2.05;1.42;;;;;;;21.60;45.87;99419.38;4982326;28;20029;-67
2023/10/31 02:32:49;;;;;;;2.53;1.45;;;;;;;21.58;45.81;99416.16;5023636;28;20834;-67
2023/10/31 02:35:16;;;;;;;2.60;1.30;;;;;;;21.59;45.91;99419.63;4986399;28;20106;-67
2023/10/31 02:37:42;;;;;;;1.90;1.50;;;;;;;21.58;46.11;99420.66;5022788;28;20049;-68
2023/10/31 02:40:08;;;;;;;1.42;1.15;;;;;;;21.57;45.65;99425.16;4984260;28;20392;-68
2023/10/31 02:42:34;;;;;;;1.13;1.00;;;;;;;21.59;45.70;99423.06;5028064;28;20116;-68
2023/10/31 02:44:59;;;;;;;1.58;1.27;;;;;;;21.60;45.73;99426.53;4967682;28;20130;-68
2023/10/31 02:47:25;;;;;;;2.92;1.27;;;;;;;21.59;45.71;99424.91;5029028;28;20052;-68
2023/10/31 02:49:53;;;;;;;2.63;1.55;;;;;;;21.59;45.91;99424.91;5016655;28;20045;-68
2023/10/31 02:52:19;;;;;;;2.88;1.48;;;;;;;21.58;45.91;99433.91;5004517;28;20065;-68
2023/10/31 02:54:44;;;;;;;2.85;1.30;;;;;;;21.57;45.95;99443.69;4971010;28;20060;-67
2023/10/31 02:57:10;;;;;;;1.95;1.10;;;;;;;21.57;45.86;99450.81;5012774;28;20041;-67
2023/10/31 02:59:35;;;;;;;1.95;1.30;;;;;;;21.57;45.92;99450.81;4978683;28;20044;-68
2023/10/31 03:02:01;;;;;;;1.67;1.23;;;;;;;21.57;46.00;99456.94;5020909;28;20071;-68
2023/10/31 03:04:29;;;;;;;1.50;1.25;;;;;;;21.57;45.66;99464.06;4992023;28;20606;-67
2023/10/31 03:06:54;;;;;;;1.17;1.08;;;;;;;21.55;45.74;99471.44;5026206;28;20045;-67
2023/10/31 03:09:20;;;;;;;2.42;1.10;;;;;;;21.56;45.89;99470.41;4991832;28;20041;-68
2023/10/31 03:11:45;;;;;;;1.92;1.38;;;;;;;21.55;46.06;99476.72;5023955;28;20045;-68
2023/10/31 03:14:11;;;;;;;1.48;1.10;;;;;;;21.54;45.99;99478.53;4989011;28;20044;-67
2023/10/31 03:16:36;;;;;;;1.60;0.95;;;;;;;21.52;45.86;99475.31;5008637;28;21102;-67
2023/10/31 03:19:02;;;;;;;1.23;1.10;;;;;;;21.51;45.84;99473.69;4977553;28;20440;-67
2023/10/31 03:21:28;;;;;;;1.27;1.17;;;;;;;21.45;45.75;99471.94;5023786;28;20107;-67
2023/10/31 03:23:55;;;;;;;1.55;1.15;;;;;;;21.52;45.96;99480.59;4985771;28;20044;-68
2023/10/31 03:26:21;;;;;;;1.48;0.90;;;;;;;21.50;45.89;99485.31;5026937;28;20034;-67
2023/10/31 03:28:47;;;;;;;3.10;1.13;;;;;;;21.50;45.70;99489.81;4986458;28;20408;-67
2023/10/31 03:31:13;;;;;;;1.70;1.02;;;;;;;21.52;45.91;99499.16;5027187;28;20116;-67
2023/10/31 03:33:39;;;;;;;1.85;1.23;;;;;;;21.50;45.98;99497.75;4975929;28;20069;-67
2023/10/31 03:36:05;;;;;;;1.30;1.10;;;;;;;21.53;46.03;99494.66;5020848;28;20596;-67
2023/10/31 03:38:34;;;;;;;1.65;1.30;;;;;;;21.50;45.84;99495.91;4976857;28;20029;-67
2023/10/31 03:41:00;;;;;;;1.40;1.25;;;;;;;21.50;46.01;99497.75;5021144;28;20041;-68
2023/10/31 03:43:26;;;;;;;1.65;1.08;;;;;;;21.45;46.00;99498.44;4981668;28;20124;-68
2023/10/31 03:45:52;;;;;;;1.63;0.80;;;;;;;21.50;45.90;99503.88;5028777;28;20042;-68
2023/10/31 03:48:18;;;;;;;2.30;1.00;;;;;;;21.50;46.01;99511.81;4982041;28;20162;-67
2023/10/31 03:50:44;;;;;;;0.88;0.88;;;;;;;21.50;46.01;99517.09;5029423;28;20029;-67
2023/10/31 03:53:10;;;;;;;2.88;1.65;;;;;;;21.45;46.02;99510.88;4983796;28;21047;-67
2023/10/31 03:55:35;;;;;;;0.90;0.90;;;;;;;21.52;45.77;99528.28;5028956;28;20048;-67
2023/10/31 03:58:01;;;;;;;1.45;1.00;;;;;;;21.50;46.06;99527.69;5015777;28;20135;-68
2023/10/31 04:00:27;;;;;;;1.35;1.13;;;;;;;21.50;45.89;99538.28;5033670;28;20041;-68
2023/10/31 04:02:52;;;;;;;1.05;1.00;;;;;;;21.49;45.76;99541.97;4972143;28;20037;-67
2023/10/31 04:05:18;;;;;;;0.88;0.88;;;;;;;21.45;45.79;99535.50;5023124;28;20059;-67
2023/10/31 04:07:45;;;;;;;2.72;1.08;;;;;;;21.52;46.12;99546.81;4965183;28;20049;-67
2023/10/31 04:10:11;;;;;;;1.10;1.00;;;;;;;21.51;45.63;99550.50;5025640;28;20049;-67
2023/10/31 04:12:36;;;;;;;1.85;1.00;;;;;;;21.51;45.67;99562.94;4987421;28;20499;-67
2023/10/31 04:15:03;;;;;;;0.88;0.88;;;;;;;21.51;45.92;99557.66;5024423;28;20517;-67
2023/10/31 04:17:28;;;;;;;1.15;1.00;;;;;;;21.53;45.91;99572.28;4977897;28;20059;-67
2023/10/31 04:19:54;;;;;;;2.10;0.80;;;;;;;21.50;45.71;99578.03;5019465;28;20548;-67
2023/10/31 04:22:20;;;;;;;5.03;1.25;;;;;;;21.50;45.94;99575.38;4981915;28;21096;-67
2023/10/31 04:24:45;;;;;;;1.15;0.95;;;;;;;21.49;46.11;99572.94;5022172;28;20060;-66
2023/10/31 04:27:11;;;;;;;1.00;0.85;;;;;;;21.51;46.00;99576.19;4984986;28;20586;-67
2023/10/31 04:29:36;;;;;;;0.85;0.82;;;;;;;21.49;46.06;99579.06;5023634;28;20553;-67
2023/10/31 04:32:02;;;;;;;0.85;0.80;;;;;;;21.46;45.78;99590.09;4966693;28;20056;-66
2023/10/31 04:34:28;;;;;;;1.48;1.05;;;;;;;21.46;45.93;99582.16;5019466;28;20438;-67
2023/10/31 04:36:53;;;;;;;1.30;1.17;;;;;;;21.46;45.77;99590.09;4979291;28;20041;-67
2023/10/31 04:39:19;;;;;;;1.10;0.80;;;;;;;21.42;45.81;99586.28;5025158;28;20045;-67
2023/10/31 04:41:45;;;;;;;0.90;0.60;;;;;;;21.46;45.62;99597.22;4979245;28;20033;-67
2023/10/31 04:44:10;;;;;;;1.42;1.00;;;;;;;21.47;45.80;99596.19;5009869;28;20111;-67
2023/10/31 04:46:36;;;;;;;1.45;0.90;;;;;;;21.44;45.94;99597.44;5016876;28;20124;-66
2023/10/31 04:49:03;;;;;;;1.30;1.20;;;;;;;21.44;45.73;99601.94;5000520;28;20879;-67
2023/10/31 04:51:36;;;;;;;1.17;0.93;;;;;;;21.42;45.78;99604.81;5023740;28;20039;-67
2023/10/31 04:54:02;;;;;;;1.92;1.10;;;;;;;21.43;45.81;99617.03;4989181;28;20065;-67
2023/10/31 04:56:27;;;;;;;1.20;0.75;;;;;;;21.45;45.96;99622.09;5022068;28;20121;-67
2023/10/31 04:58:53;;;;;;;2.72;1.00;;;;;;;21.41;45.85;99619.88;4964774;28;20037;-67
2023/10/31 05:01:19;;;;;;;2.15;1.27;;;;;;;21.42;45.81;99624.16;5021198;28;20444;-67
2023/10/31 05:03:44;;;;;;;1.10;0.98;;;;;;;21.41;46.03;99622.53;5025921;28;20025;-67
2023/10/31 05:06:10;;;;;;;0.85;0.82;;;;;;;21.34;45.83;99618.31;4978505;28;20088;-67
2023/10/31 05:08:36;;;;;;;1.40;1.00;;;;;;;21.41;46.10;99632.31;5017032;28;20041;-67
2023/10/31 05:11:01;;;;;;;1.27;1.08;;;;;;;21.38;46.00;99638.88;4983145;28;20045;-67
2023/10/31 05:13:27;;;;;;;0.60;0.60;;;;;;;21.39;46.05;99643.13;5017772;28;20097;-67
2023/10/31 05:15:52;;;;;;;1.05;0.95;;;;;;;21.26;45.71;99622.06;4981151;28;20048;-67
2023/10/31 05:18:18;;;;;;;1.10;0.98;;;;;;;21.40;45.86;99633.34;5023387;28;20045;-67
2023/10/31 05:20:43;;;;;;;1.48;0.73;;;;;;;21.32;45.99;99637.06;4979730;28;20403;-67
2023/10/31 05:23:09;;;;;;;1.58;1.00;;;;;;;21.38;45.91;99641.53;5019423;28;20045;-67
2023/10/31 05:25:35;;;;;;;1.17;0.75;;;;;;;21.37;46.00;99631.16;4978077;28;20112;-67
2023/10/31 05:28:01;;;;;;;2.25;1.13;;;;;;;21.35;46.04;99630.53;5018918;28;20137;-67
2023/10/31 05:30:26;;;;;;;3.13;0.90;;;;;;;21.36;45.83;99637.44;4978247;28;20052;-67
2023/10/31 05:32:52;;;;;;;1.40;0.85;;;;;;;21.36;46.08;99626.84;5020439;28;20037;-67
2023/10/31 05:35:19;;;;;;;1.58;0.77;;;;;;;21.35;45.94;99635.81;4979718;28;20029;-67
2023/10/31 05:37:45;;;;;;;0.80;0.75;;;;;;;21.34;45.97;99623.63;5021850;28;20056;-67
2023/10/31 05:40:12;;;;;;;0.73;0.68;;;;;;;21.35;45.88;99636.63;4974505;28;20033;-67
2023/10/31 05:42:37;;;;;;;1.60;0.88;;;;;;;21.37;45.95;99631.16;5029887;28;20147;-68
2023/10/31 05:45:03;;;;;;;1.85;0.90;;;;;;;21.34;45.94;99636.84;4973434;28;20053;-68
2023/10/31 05:47:29;;;;;;;1.02;0.80;;;;;;;21.34;46.03;99640.31;5026350;28;20204;-67
2023/10/31 05:49:54;;;;;;;0.80;0.73;;;;;;;21.34;45.83;99652.75;4988086;28;20088;-67
2023/10/31 05:52:20;;;;;;;1.92;0.90;;;;;;;21.34;45.88;99650.91;5023839;28;20053;-67
2023/10/31 05:54:45;;;;;;;1.27;0.82;;;;;;;21.32;46.06;99655.63;4978758;28;20102;-67
2023/10/31 05:57:11;;;;;;;0.77;0.68;;;;;;;21.32;46.03;99658.25;5018890;28;20041;-67
2023/10/31 05:59:37;;;;;;;3.47;1.13;;;;;;;21.32;45.79;99660.09;4983684;28;20056;-67
2023/10/31 06:02:02;;;;;;;0.90;0.82;;;;;;;21.34;46.19;99663.34;5020101;28;20104;-67
2023/10/31 06:04:28;;;;;;;1.25;1.00;;;;;;;21.31;46.07;99661.94;4975757;28;21581;-67
2023/10/31 06:06:53;;;;;;;0.73;0.70;;;;;;;21.28;45.91;99662.38;5032882;28;20037;-67
2023/10/31 06:09:19;;;;;;;2.60;1.25;;;;;;;21.31;45.99;99666.44;4999138;28;20056;-67
2023/10/31 06:11:44;;;;;;;0.95;0.88;;;;;;;21.30;45.84;99670.91;5019364;28;20523;-67
2023/10/31 06:14:11;;;;;;;1.85;0.85;;;;;;;21.30;45.98;99673.56;5016030;28;20054;-67
2023/10/31 06:16:43;;;;;;;2.58;0.90;;;;;;;21.32;45.97;99673.34;4982778;28;20044;-67
2023/10/31 06:19:10;;;;;;;0.88;0.63;;;;;;;21.30;46.01;99676.19;5010957;28;20088;-67
2023/10/31 06:21:36;;;;;;;1.48;1.05;;;;;;;21.31;45.87;99679.66;4987936;28;20096;-67
2023/10/31 06:24:03;;;;;;;1.30;0.80;;;;;;;21.31;45.94;99674.38;5021748;28;20531;-67
2023/10/31 06:26:28;;;;;;;1.10;0.60;;;;;;;21.29;46.08;99673.78;4968905;28;20061;-67
2023/10/31 06:28:54;;;;;;;1.60;1.08;;;;;;;21.31;46.26;99679.66;5020044;28;20129;-67
2023/10/31 06:31:20;;;;;;;0.93;0.88;;;;;;;21.31;46.11;99677.81;4972474;28;20048;-67
2023/10/31 06:33:45;;;;;;;0.50;0.50;;;;;;;21.30;46.13;99680.69;5030684;28;20068;-65
2023/10/31 06:36:11;;;;;;;0.70;0.70;;;;;;;21.29;45.93;99687.00;4976507;28;20057;-65
2023/10/31 06:38:37;;;;;;;1.40;0.85;;;;;;;21.28;46.17;99683.56;5027518;28;20072;-65
2023/10/31 06:41:02;;;;;;;2.47;1.05;;;;;;;21.28;46.14;99686.22;5006677;28;20045;-65
2023/10/31 06:43:28;;;;;;;0.93;0.60;;;;;;;21.31;45.75;99701.66;5022647;28;20059;-65
2023/10/31 06:45:54;;;;;;;1.10;0.63;;;;;;;21.29;45.98;99701.06;4979447;28;20045;-66
2023/10/31 06:48:19;;;;;;;2.00;0.90;;;;;;;21.30;45.98;99701.88;5026580;28;20134;-66
2023/10/31 06:50:45;;;;;;;0.90;0.77;;;;;;;21.30;46.25;99702.69;4976512;28;20045;-66
2023/10/31 06:53:11;;;;;;;0.85;0.55;;;;;;;21.27;46.25;99703.13;5024026;28;20033;-66
2023/10/31 06:55:36;;;;;;;1.15;0.98;;;;;;;21.26;45.75;99703.34;4983785;28;20049;-66
2023/10/31 06:58:02;;;;;;;0.60;0.60;;;;;;;21.28;46.09;99717.97;5021030;28;20041;-66
2023/10/31 07:00:28;;;;;;;1.45;0.80;;;;;;;21.27;46.05;99716.34;4980866;28;20209;-66
2023/10/31 07:02:53;;;;;;;1.23;0.60;;;;;;;21.29;45.97;99714.31;5025450;28;20042;-66
2023/10/31 07:05:20;;;;;;;0.77;0.60;;;;;;;21.29;46.01;99711.66;4984103;28;20076;-66
2023/10/31 07:07:46;;;;;;;0.82;0.80;;;;;;;21.31;45.98;99725.50;5022818;28;20092;-66
2023/10/31 07:10:12;;;;;;;0.80;0.80;;;;;;;21.30;46.18;99720.41;4984436;28;20040;-65
2023/10/31 07:12:38;;;;;;;1.92;1.00;;;;;;;21.31;46.25;99722.03;5028347;28;20075;-66
2023/10/31 07:15:04;;;;;;;1.15;1.05;;;;;;;21.31;46.35;99727.31;4985872;28;20033;-67
2023/10/31 07:17:30;;;;;;;0.52;0.52;;;;;;;21.31;45.99;99737.91;5030928;28;20128;-66
2023/10/31 07:19:55;;;;;;;0.93;0.68;;;;;;;21.28;45.90;99731.22;5010653;28;20056;-66
2023/10/31 07:22:22;;;;;;;1.25;0.80;;;;;;;21.30;46.10;99734.47;5020965;28;20118;-66
2023/10/31 07:24:48;;;;;;;0.73;0.70;;;;;;;21.33;46.18;99739.31;4989249;28;20124;-66
2023/10/31 07:27:13;;;;;;;0.50;0.50;;;;;;;21.35;46.15;99744.41;5022349;28;20376;-66
2023/10/31 07:29:41;;;;;;;1.30;0.80;;;;;;;21.31;45.96;99733.44;4984348;28;20064;-65
2023/10/31 07:32:07;;;;;;;0.57;0.50;;;;;;;21.35;46.08;99739.91;5025750;28;20072;-65
2023/10/31 07:34:33;;;;;;;0.55;0.52;;;;;;;21.36;46.09;99743.38;4978721;28;20056;-65
2023/10/31 07:36:58;;;;;;;2.40;0.88;;;;;;;21.32;45.98;99735.06;5024712;28;20376;-65
2023/10/31 07:39:24;;;;;;;0.85;0.70;;;;;;;21.38;45.76;99738.69;4986539;28;20076;-65
2023/10/31 07:41:49;;;;;;;1.00;0.90;;;;;;;21.39;45.76;99746.41;5020535;28;20111;-66
2023/10/31 07:44:15;;;;;;;0.93;0.70;;;;;;;21.42;46.06;99750.47;4980134;28;20124;-65
2023/10/31 07:46:41;;;;;;;0.85;0.70;;;;;;;21.41;45.84;99743.56;5025274;28;20037;-65
2023/10/31 07:49:06;;;;;;;0.63;0.60;;;;;;;21.42;45.89;99753.94;4977425;28;21923;-65
2023/10/31 07:51:32;;;;;;;0.43;0.40;;;;;;;21.40;46.16;99750.69;5026105;28;20037;-66
2023/10/31 07:53:58;;;;;;;0.88;0.63;;;;;;;21.43;46.05;99746.78;4984090;28;20033;-64
2023/10/31 07:56:25;;;;;;;1.63;0.70;;;;;;;21.45;46.04;99746.56;5013348;28;20139;-65
2023/10/31 07:58:51;;;;;;;0.82;0.60;;;;;;;21.37;45.90;99745.81;4993926;28;20037;-65
2023/10/31 08:01:17;;;;;;;0.80;0.63;;;;;;;21.46;45.82;99748.19;5004584;28;20033;-65
2023/10/31 08:03:43;;;;;;;1.55;0.70;;;;;;;21.45;46.05;99746.56;5011301;28;20064;-65
2023/10/31 08:06:11;;;;;;;1.00;0.70;;;;;;;21.39;45.64;99745.63;4989518;28;20124;-65
2023/10/31 08:08:36;;;;;;;0.90;0.63;;;;;;;21.34;46.04;99756.03;5020644;28;20034;-66
2023/10/31 08:11:03;;;;;;;1.42;0.70;;;;;;;21.42;46.03;99753.13;4982566;28;20678;-66
2023/10/31 08:13:29;;;;;;;0.70;0.47;;;;;;;21.43;45.82;99757.38;5012983;28;20641;-67
2023/10/31 08:15:55;;;;;;;0.82;0.60;;;;;;;21.46;46.03;99767.53;4972030;28;20049;-64
2023/10/31 08:18:23;;;;;;;1.13;0.70;;;;;;;21.45;46.25;99762.47;5017014;28;20114;-65
2023/10/31 08:20:50;;;;;;;2.20;0.68;;;;;;;21.49;46.03;99768.94;4986466;28;20052;-65
2023/10/31 08:23:17;;;;;;;0.50;0.50;;;;;;;21.42;45.92;99756.56;5009113;28;20037;-65
2023/10/31 08:25:42;;;;;;;2.55;1.25;;;;;;;21.39;45.77;99756.22;5024633;28;20685;-65
2023/10/31 08:28:08;;;;;;;1.23;1.10;;;;;;;21.52;45.76;99779.91;4975313;28;20119;-65
2023/10/31 08:30:33;;;;;;;1.08;0.90;;;;;;;21.37;45.87;99768.84;5019622;28;20033;-66
2023/10/31 08:32:59;;;;;;;1.55;1.00;;;;;;;21.55;45.57;99795.41;4986512;28;20824;-69
2023/10/31 08:35:25;;;;;;;3.17;0.88;;;;;;;21.56;45.65;99791.72;5015157;28;20775;-68
2023/10/31 08:37:50;;;;;;;3.20;0.80;;;;;;;21.56;45.51;99794.38;4985892;28;20045;-71
2023/10/31 08:40:16;;;;;;;1.85;0.80;;;;;;;21.63;45.48;99786.38;5026831;28;20045;-72
2023/10/31 08:42:41;;;;;;;2.10;1.20;;;;;;;21.70;45.89;99795.88;4980880;28;20056;-69
2023/10/31 08:45:08;;;;;;;0.77;0.63;;;;;;;21.78;45.70;99797.44;5013689;28;20044;-69
2023/10/31 08:47:33;;;;;;;1.98;1.35;;;;;;;21.69;46.03;99811.97;5015239;28;20125;-68
2023/10/31 08:49:59;;;;;;;3.97;1.20;;;;;;;21.65;45.77;99816.09;4985711;28;20044;-69
2023/10/31 08:52:24;;;;;;;2.97;0.70;;;;;;;21.63;46.04;99818.16;5020369;28;20446;-68
2023/10/31 08:54:50;;;;;;;3.20;0.88;;;;;;;21.60;45.91;99815.94;4978453;28;20049;-68
2023/10/31 08:57:15;;;;;;;1.17;0.90;;;;;;;21.62;45.86;99816.53;5013548;28;20049;-68
2023/10/31 08:59:41;;;;;;;3.15;1.13;;;;;;;21.62;46.06;99822.66;4984992;28;20630;-70
2023/10/31 09:02:06;;;;;;;0.95;0.65;;;;;;;21.61;45.90;99825.50;5021014;28;20041;-70
2023/10/31 09:04:32;;;;;;;1.60;0.88;;;;;;;21.66;45.80;99830.97;5011366;28;20556;-73
2023/10/31 09:06:57;;;;;;;3.83;1.02;;;;;;;21.68;45.87;99828.91;5026908;28;20033;-74
2023/10/31 09:09:23;;;;;;;0.88;0.80;;;;;;;21.69;46.06;99836.63;4983667;28;20041;-79
2023/10/31 09:11:48;;;;;;;1.95;0.90;;;;;;;21.59;45.78;99830.22;5022806;28;20096;-80
2023/10/31 09:14:14;;;;;;;2.20;0.93;;;;;;;21.75;45.70;99848.25;4968267;28;20399;-73
2023/10/31 09:16:39;;;;;;;2.60;0.88;;;;;;;21.85;45.55;99858.34;5019656;28;20053;-74
2023/10/31 09:19:05;;;;;;;1.73;1.23;;;;;;;21.90;45.78;99866.44;4985522;28;20053;-70
2023/10/31 09:21:30;;;;;;;2.00;1.02;;;;;;;21.94;45.84;99867.66;5014460;28;20835;-71
2023/10/31 09:23:56;;;;;;;2.15;1.00;;;;;;;21.95;45.74;99869.28;5014432;28;20049;-71
2023/10/31 09:26:21;;;;;;;2.13;1.30;;;;;;;22.00;45.46;99878.19;4980048;28;20041;-70
2023/10/31 09:28:49;;;;;;;1.30;0.75;;;;;;;21.97;45.66;99875.97;5016991;28;20046;-69
2023/10/31 09:31:17;;;;;;;2.75;1.55;;;;;;;21.94;45.86;99879.06;5007468;28;20038;-71
2023/10/31 09:33:43;;;;;;;3.20;0.80;;;;;;;21.98;45.94;99893.50;5023993;28;20033;-73
2023/10/31 09:36:09;;;;;;;2.47;0.93;;;;;;;22.05;45.62;99900.63;4986516;28;20033;-73
2023/10/31 09:38:34;;;;;;;2.92;1.35;;;;;;;22.03;45.63;99906.91;5019275;28;20042;-74
2023/10/31 09:41:00;;;;;;;2.47;1.23;;;;;;;21.93;45.99;99917.22;4980780;28;20045;-73
2023/10/31 09:43:25;;;;;;;2.13;1.00;;;;;;;21.95;45.62;99919.63;5004248;28;20038;-73
2023/10/31 09:45:52;;;;;;;3.15;1.35;;;;;;;21.98;45.72;99930.63;5015704;28;20049;-73
2023/10/31 09:48:19;;;;;;;2.65;0.80;;;;;;;21.99;45.50;99932.25;4983361;28;20037;-73
2023/10/31 09:50:46;;;;;;;2.97;1.10;;;;;;;21.97;45.47;99942.25;5017151;28;20042;-73
2023/10/31 09:53:14;;;;;;;2.38;1.10;;;;;;;21.99;45.87;99948.16;4984927;28;20112;-73
2023/10/31 09:55:39;;;;;;;2.28;1.00;;;;;;;21.90;45.71;99941.50;5019170;28;20270;-74
2023/10/31 09:58:05;;;;;;;1.63;0.70;;;;;;;21.97;46.04;99962.66;4962139;28;20041;-74
2023/10/31 10:00:30;;;;;;;2.92;0.88;;;;;;;21.93;45.82;99951.66;5023425;28;20044;-74
2023/10/31 10:02:57;;;;;;;3.67;0.88;;;;;;;21.81;45.51;99941.97;5011659;28;20032;-73
2023/10/31 10:05:24;;;;;;;2.10;1.08;;;;;;;21.95;45.63;99973.47;5022403;28;20555;-74
2023/10/31 10:07:50;;;;;;;3.42;0.90;;;;;;;21.96;45.76;99979.59;4983781;28;20095;-74
2023/10/31 10:10:16;;;;;;;3.17;1.02;;;;;;;21.82;45.68;99962.94;5023390;28;20491;-74
2023/10/31 10:12:43;;;;;;;1.60;0.93;;;;;;;21.98;45.95;99993.44;4986342;28;20076;-73
2023/10/31 10:15:10;;;;;;;1.80;0.60;;;;;;;21.89;45.64;99986.75;5022992;28;20045;-73
2023/10/31 10:17:36;;;;;;;1.60;0.80;;;;;;;21.96;45.79;100001.59;4988811;28;20068;-73
2023/10/31 10:20:10;;;;;;;2.50;0.85;;;;;;;21.98;45.39;100004.03;5036973;28;20054;-74
2023/10/31 10:22:45;;;;;;;2.35;1.08;;;;;;;21.88;45.81;99993.06;5022639;28;20491;-74
2023/10/31 10:25:18;;;;;;;2.08;0.88;;;;;;;21.98;45.70;100019.94;4980250;28;20041;-73
2023/10/31 10:27:44;;;;;;;2.65;0.80;;;;;;;21.98;45.38;100019.94;5026177;28;20354;-73
2023/10/31 10:30:12;;;;;;;0.98;0.80;;;;;;;21.97;45.73;100027.09;4989290;28;20050;-73
2023/10/31 10:32:38;;;;;;;3.55;1.00;;;;;;;21.92;45.42;100018.16;5019805;28;20091;-74
2023/10/31 10:35:04;;;;;;;1.42;0.70;;;;;;;21.97;45.75;100031.56;4986418;28;20068;-73
2023/10/31 10:37:30;;;;;;;1.42;0.90;;;;;;;21.91;45.54;100021.84;5032807;28;20041;-74
2023/10/31 10:39:59;;;;;;;1.92;0.57;;;;;;;21.92;45.41;100024.25;4988369;28;20046;-74
2023/10/31 10:42:35;;;;;;;2.25;0.73;;;;;;;21.92;45.41;100029.56;5015542;28;20533;-74
2023/10/31 10:45:05;;;;;;;0.77;0.50;;;;;;;21.94;45.53;100032.81;5032327;28;20052;-73
2023/10/31 10:47:37;;;;;;;2.72;0.77;;;;;;;21.95;45.62;100038.94;4982920;28;20052;-74
2023/10/31 10:50:06;;;;;;;1.90;0.68;;;;;;;21.87;45.58;100032.03;5027403;28;20125;-74
2023/10/31 10:53:00;;;;;;;1.17;0.60;;;;;;;21.97;45.70;100048.28;4985541;28;20037;-74
2023/10/31 10:55:26;;;;;;;2.90;0.90;;;;;;;21.95;45.69;100050.34;5027320;28;20033;-74
2023/10/31 10:58:24;;;;;;;2.22;0.52;;;;;;;21.74;45.71;100012.75;4993601;28;20110;-75
2023/10/31 11:00:50;;;;;;;1.23;1.05;;;;;;;21.98;45.55;100055.22;5002986;28;20056;-75
2023/10/31 11:03:17;;;;;;;1.23;0.60;;;;;;;21.86;45.39;100043.66;4995041;28;20041;-74
2023/10/31 11:05:43;;;;;;;1.23;0.60;;;;;;;21.92;45.40;100056.06;5026544;28;20879;-74
2023/10/31 11:08:09;;;;;;;2.50;1.15;;;;;;;21.95;45.41;100060.94;4974967;28;20052;-74
2023/10/31 11:10:35;;;;;;;0.77;0.60;;;;;;;21.95;45.31;100071.53;5021321;28;20068;-74
2023/10/31 11:13:00;;;;;;;0.90;0.57;;;;;;;21.98;45.66;100068.47;4983111;28;20037;-74
2023/10/31 11:15:27;;;;;;;1.38;0.90;;;;;;;21.89;45.78;100053.81;5023754;28;20092;-73
2023/10/31 11:17:55;;;;;;;1.38;0.60;;;;;;;21.94;45.61;100056.66;4986936;28;20692;-74
2023/10/31 11:20:21;;;;;;;0.95;0.70;;;;;;;21.99;45.34;100067.44;5020539;28;20053;-73
2023/10/31 11:22:51;;;;;;;1.10;0.70;;;;;;;21.97;45.29;100074.78;4987806;28;20095;-73
2023/10/31 11:25:20;;;;;;;0.88;0.73;;;;;;;21.97;45.45;100074.78;5023870;28;20503;-73
2023/10/31 11:27:46;;;;;;;1.27;0.73;;;;;;;21.98;45.16;100084.38;4984182;28;21123;-73